Time;durP1;ratioP1;P1;durP2;ratioP2;P2;SDS_P1;SDS_P2;PMS_P1;PMS_P2;Temp;Humidity;BMP_temperature;BMP_pressure;BME280_temperature;BME280_humidity;BME280_pressure;Samples;Min_cycle;Max_cycle;Signal;HPM_P1;HPM_P2
2022/07/13 00:00:49;;;;;;;4.53;4.12;;;;;;;14.65;100.00;100909.38;1752253;80;21048;-88
2022/07/13 00:03:17;;;;;;;5.20;4.45;;;;;;;14.61;100.00;100913.24;1751977;81;21032;-87
2022/07/13 00:05:45;;;;;;;5.05;4.20;;;;;;;14.57;100.00;100916.61;1751799;81;21049;-88
2022/07/13 00:08:12;;;;;;;7.17;4.50;;;;;;;14.53;100.00;100917.02;1751783;81;21080;-88
2022/07/13 00:10:39;;;;;;;6.47;4.33;;;;;;;14.49;100.00;100917.77;1752029;81;21108;-88
2022/07/13 00:13:07;;;;;;;5.37;4.62;;;;;;;14.47;100.00;100923.11;1751646;81;21312;-88
2022/07/13 00:15:35;;;;;;;7.40;4.72;;;;;;;14.44;100.00;100913.38;1752262;81;21080;-88
2022/07/13 00:18:02;;;;;;;5.95;4.58;;;;;;;14.41;100.00;100917.59;1742980;81;21523;-88
2022/07/13 00:20:30;;;;;;;5.75;5.03;;;;;;;14.37;100.00;100919.66;1734551;82;22119;-88
2022/07/13 00:22:57;;;;;;;7.08;4.60;;;;;;;14.33;100.00;100921.72;1734257;82;21199;-88
2022/07/13 00:25:24;;;;;;;4.62;4.22;;;;;;;14.26;100.00;100917.94;1733815;82;21073;-87
2022/07/13 00:27:51;;;;;;;5.90;4.70;;;;;;;14.20;100.00;100916.70;1734492;82;21026;-87
2022/07/13 00:30:19;;;;;;;4.83;4.30;;;;;;;14.17;100.00;100919.57;1733905;82;21007;-87
2022/07/13 00:32:46;;;;;;;6.28;4.47;;;;;;;14.17;100.00;100920.06;1734215;82;21101;-88
2022/07/13 00:35:13;;;;;;;5.67;4.40;;;;;;;14.16;100.00;100915.29;1734232;82;21142;-88
2022/07/13 00:37:40;;;;;;;5.47;4.37;;;;;;;14.16;100.00;100915.78;1734169;82;21085;-88
2022/07/13 00:40:08;;;;;;;9.05;4.30;;;;;;;14.15;100.00;100913.62;1734613;81;22236;-88
2022/07/13 00:42:36;;;;;;;5.42;4.20;;;;;;;14.14;100.00;100913.27;1734169;81;21532;-88
2022/07/13 00:45:04;;;;;;;4.42;4.03;;;;;;;14.12;100.00;100917.84;1734167;82;21112;-87
2022/07/13 00:47:33;;;;;;;6.40;4.40;;;;;;;14.08;100.00;100916.92;1734349;82;21870;-87
2022/07/13 00:50:06;;;;;;;4.80;4.40;;;;;;;13.94;100.00;100915.47;1734269;82;21037;-88
2022/07/13 00:52:36;;;;;;;9.45;4.42;;;;;;;13.84;100.00;100917.55;1734653;82;21025;-88
2022/07/13 00:55:06;;;;;;;7.00;4.17;;;;;;;13.77;100.00;100912.48;1739252;82;21089;-90
2022/07/13 00:57:35;;;;;;;8.03;4.70;;;;;;;13.77;100.00;100919.02;1741235;82;21023;-88
2022/07/13 01:00:07;;;;;;;6.85;4.75;;;;;;;13.76;100.00;100913.92;1741203;82;21906;-87
2022/07/13 01:02:41;;;;;;;5.58;4.58;;;;;;;13.75;100.00;100917.50;1738209;82;21102;-88
2022/07/13 01:05:10;;;;;;;6.65;4.28;;;;;;;13.68;100.00;100908.86;1739920;82;21541;-88
2022/07/13 01:07:38;;;;;;;5.70;4.15;;;;;;;13.64;100.00;100909.24;1740195;82;21444;-88
2022/07/13 01:10:10;;;;;;;6.37;4.60;;;;;;;13.62;100.00;100909.34;1741094;82;21025;-89
2022/07/13 01:12:40;;;;;;;4.62;4.00;;;;;;;13.64;100.00;100911.86;1741223;82;22235;-88
2022/07/13 01:15:08;;;;;;;5.67;5.05;;;;;;;13.67;100.00;100916.81;1741176;82;21033;-89
2022/07/13 01:17:38;;;;;;;4.95;3.98;;;;;;;13.64;100.00;100908.75;1741206;82;21058;-88
2022/07/13 01:20:08;;;;;;;4.75;4.30;;;;;;;13.62;100.00;100905.92;1741214;82;21033;-88
2022/07/13 01:22:50;;;;;;;5.55;4.30;;;;;;;13.64;100.00;100907.44;1741159;82;21046;-88
2022/07/13 01:25:19;;;;;;;4.30;3.92;;;;;;;13.64;100.00;100902.21;1736200;82;21180;-88
2022/07/13 01:27:49;;;;;;;6.05;4.33;;;;;;;13.65;100.00;100909.59;1741066;82;21013;-88
2022/07/13 01:30:16;;;;;;;6.78;4.53;;;;;;;13.65;100.00;100905.67;1741009;82;21081;-89
2022/07/13 01:32:49;;;;;;;6.30;4.35;;;;;;;13.69;100.00;100910.52;1741444;82;21002;-88
2022/07/13 01:35:21;;;;;;;5.95;4.97;;;;;;;13.67;100.00;100916.36;1741692;82;22120;-89
2022/07/13 01:37:51;;;;;;;6.78;4.50;;;;;;;13.59;100.00;100910.08;1741199;82;21021;-88
2022/07/13 01:40:18;;;;;;;6.15;5.15;;;;;;;13.51;100.00;100911.55;1741136;82;21088;-88
2022/07/13 01:42:49;;;;;;;9.45;5.85;;;;;;;13.50;100.00;100910.38;1741281;82;21054;-88
2022/07/13 01:45:24;;;;;;;7.08;6.03;;;;;;;13.51;100.00;100908.13;1740777;82;21029;-89
2022/07/13 01:47:55;;;;;;;7.53;6.12;;;;;;;13.52;100.00;100904.55;1741193;82;21100;-89
2022/07/13 01:50:30;;;;;;;8.13;6.80;;;;;;;13.53;100.00;100900.98;1740994;82;21543;-88
2022/07/13 01:52:57;;;;;;;13.75;7.50;;;;;;;13.56;100.00;100903.33;1741413;82;21033;-88
2022/07/13 01:55:24;;;;;;;12.85;7.72;;;;;;;13.57;100.00;100898.45;1735703;82;21058;-88
2022/07/13 01:57:59;;;;;;;10.68;7.15;;;;;;;13.59;100.00;100897.00;1734117;82;21112;-88
2022/07/13 02:00:27;;;;;;;12.10;8.53;;;;;;;13.60;100.00;100898.66;1734699;82;21043;-88
2022/07/13 02:02:55;;;;;;;12.85;8.30;;;;;;;13.62;100.00;100892.83;1734555;81;22215;-88
2022/07/13 02:05:26;;;;;;;13.15;8.20;;;;;;;13.62;100.00;100891.03;1734302;82;21512;-89
2022/07/13 02:07:56;;;;;;;12.73;9.83;;;;;;;13.63;100.00;100889.27;1734079;82;21085;-88
2022/07/13 02:10:34;;;;;;;13.28;9.70;;;;;;;13.64;100.00;100893.55;1734294;82;21097;-88
2022/07/13 02:12:57;;;;;;;15.35;10.18;;;;;;;13.63;100.00;100894.50;1730755;81;21039;-88
2022/07/13 02:15:25;;;;;;;15.83;10.00;;;;;;;13.60;100.00;100896.05;1734753;82;21131;-87
2022/07/13 02:17:52;;;;;;;15.80;9.95;;;;;;;13.56;100.00;100899.41;1734189;82;21026;-89
2022/07/13 02:20:21;;;;;;;15.48;9.48;;;;;;;13.52;100.00;100888.36;1734432;82;21034;-88
2022/07/13 02:22:49;;;;;;;13.53;10.13;;;;;;;13.48;100.00;100891.36;1734012;82;21022;-88
2022/07/13 02:25:16;;;;;;;13.70;10.15;;;;;;;13.43;100.00;100890.44;1734062;82;21045;-88
2022/07/13 02:27:46;;;;;;;12.53;9.63;;;;;;;13.38;100.00;100896.04;1734086;82;21148;-88
2022/07/13 02:30:14;;;;;;;15.45;10.00;;;;;;;13.26;100.00;100901.77;1734011;82;21528;-87
2022/07/13 02:32:44;;;;;;;18.10;11.68;;;;;;;13.09;100.00;100904.96;1734532;82;21033;-89
2022/07/13 02:35:13;;;;;;;20.00;13.20;;;;;;;12.96;100.00;100902.51;1734249;82;21030;-88
2022/07/13 02:37:41;;;;;;;18.55;12.88;;;;;;;12.87;100.00;100906.67;1734305;82;21029;-88
2022/07/13 02:40:12;;;;;;;17.67;12.73;;;;;;;12.82;100.00;100907.53;1734262;82;21128;-87
2022/07/13 02:42:40;;;;;;;17.80;12.80;;;;;;;12.82;100.00;100910.64;1734292;82;21037;-88
2022/07/13 02:45:08;;;;;;;18.12;12.15;;;;;;;12.82;100.00;100906.72;1734202;82;21093;-87
2022/07/13 02:47:36;;;;;;;16.77;12.10;;;;;;;12.86;100.00;100902.89;1734110;82;21042;-88
2022/07/13 02:50:03;;;;;;;19.30;11.90;;;;;;;12.94;100.00;100897.87;1734143;82;21081;-88
2022/07/13 02:52:31;;;;;;;13.93;11.48;;;;;;;13.05;100.00;100899.16;1733926;82;21239;-89
2022/07/13 02:54:58;;;;;;;17.10;11.78;;;;;;;13.16;100.00;100895.66;1734094;82;21058;-88
2022/07/13 02:57:26;;;;;;;18.77;11.78;;;;;;;13.28;100.00;100900.82;1734434;82;21089;-89
2022/07/13 02:59:55;;;;;;;17.80;11.73;;;;;;;13.41;100.00;100896.30;1705215;82;21089;-89
2022/07/13 03:02:22;;;;;;;15.72;11.10;;;;;;;13.54;100.00;100890.38;1734276;82;21038;-88
2022/07/13 03:04:50;;;;;;;18.42;12.13;;;;;;;13.67;100.00;100897.19;1734646;82;21109;-87
2022/07/13 03:07:18;;;;;;;17.15;12.03;;;;;;;13.76;100.00;100904.77;1733850;82;21022;-88
2022/07/13 03:09:46;;;;;;;17.40;12.18;;;;;;;13.81;100.00;100899.50;1734522;82;21929;-89
2022/07/13 03:12:15;;;;;;;20.00;11.85;;;;;;;13.86;100.00;100889.46;1734098;82;21069;-90
2022/07/13 03:14:42;;;;;;;14.63;11.30;;;;;;;13.90;100.00;100892.64;1734301;82;21089;-89
2022/07/13 03:17:10;;;;;;;15.75;12.25;;;;;;;13.94;100.00;100889.28;1734416;82;21127;-88
2022/07/13 03:19:38;;;;;;;16.48;11.35;;;;;;;13.99;100.00;100891.02;1733969;82;21648;-88
2022/07/13 03:22:05;;;;;;;15.60;12.20;;;;;;;14.09;100.00;100891.09;1734359;82;21034;-89
2022/07/13 03:24:34;;;;;;;158.32;16.05;;;;;;;14.17;100.00;100888.14;1734217;82;21045;-88
2022/07/13 03:27:02;;;;;;;15.78;11.03;;;;;;;14.29;100.00;100884.13;1734656;82;21038;-89
2022/07/13 03:29:29;;;;;;;13.38;10.55;;;;;;;14.39;100.00;100891.52;1734546;82;21139;-88
2022/07/13 03:31:56;;;;;;;14.65;10.45;;;;;;;14.49;100.00;100891.56;1734240;82;21030;-88
2022/07/13 03:34:24;;;;;;;12.85;10.23;;;;;;;14.59;100.00;100888.95;1736663;81;21097;-88
2022/07/13 03:36:51;;;;;;;15.53;10.23;;;;;;;14.69;100.00;100892.46;1734466;82;21033;-89
2022/07/13 03:39:18;;;;;;;15.03;10.40;;;;;;;14.82;100.00;100889.59;1759226;81;21029;-88
2022/07/13 03:41:46;;;;;;;15.63;10.93;;;;;;;14.95;100.00;100890.14;1765105;80;21669;-88
2022/07/13 03:44:13;;;;;;;14.90;11.00;;;;;;;14.98;100.00;100888.53;1764351;81;21528;-88
2022/07/13 03:46:41;;;;;;;16.20;11.28;;;;;;;15.09;100.00;100888.91;1764944;80;21026;-88
2022/07/13 03:49:10;;;;;;;14.50;10.50;;;;;;;15.21;100.00;100882.19;1764927;81;21074;-89
2022/07/13 03:51:40;;;;;;;10.40;9.30;;;;;;;15.34;100.00;100885.38;1764442;81;21548;-89
2022/07/13 03:54:08;;;;;;;10.20;9.20;;;;;;;15.48;100.00;100889.83;1764538;81;21174;-88
2022/07/13 03:56:39;;;;;;;14.07;9.63;;;;;;;15.62;100.00;100888.07;1753728;81;21058;-89
2022/07/13 03:59:06;;;;;;;11.95;10.05;;;;;;;15.74;100.00;100877.73;1732576;81;21556;-89
2022/07/13 04:01:34;;;;;;;11.15;9.50;;;;;;;15.90;100.00;100881.61;1732435;81;21106;-89
2022/07/13 04:04:03;;;;;;;13.60;9.25;;;;;;;16.04;100.00;100882.45;1754111;81;21467;-89
2022/07/13 04:06:30;;;;;;;11.88;8.90;;;;;;;16.19;100.00;100883.28;1753916;81;21171;-91
2022/07/13 04:08:59;;;;;;;9.50;8.23;;;;;;;16.33;100.00;100878.84;1754033;81;21783;-88
2022/07/13 04:11:26;;;;;;;9.98;8.93;;;;;;;16.50;100.00;100875.08;1753670;81;21030;-90
2022/07/13 04:13:54;;;;;;;11.15;9.65;;;;;;;16.64;100.00;100872.44;1753911;81;21018;-90
2022/07/13 04:16:23;;;;;;;10.70;9.60;;;;;;;16.77;100.00;100870.77;1753616;81;21528;-89
2022/07/13 04:18:50;;;;;;;10.00;8.98;;;;;;;16.88;100.00;100870.52;1753988;81;21135;-89
2022/07/13 04:21:18;;;;;;;16.40;9.63;;;;;;;17.01;100.00;100873.65;1753844;81;21051;-89
2022/07/13 04:23:46;;;;;;;10.48;9.33;;;;;;;17.16;100.00;100871.79;1753704;81;21015;-88
2022/07/13 04:26:13;;;;;;;9.40;8.45;;;;;;;17.29;100.00;100878.78;1753967;81;21117;-88
2022/07/13 04:28:41;;;;;;;8.65;7.87;;;;;;;17.44;100.00;100875.59;1751529;81;21085;-89
2022/07/13 04:31:10;;;;;;;8.68;7.75;;;;;;;17.57;100.00;100866.81;1750363;80;21136;-90
2022/07/13 04:33:38;;;;;;;12.40;8.15;;;;;;;17.72;100.00;100873.63;1694834;84;21093;-89
2022/07/13 04:36:07;;;;;;;8.23;7.28;;;;;;;17.87;100.00;100858.08;1681426;84;21066;-89
2022/07/13 04:38:35;;;;;;;7.70;6.83;;;;;;;18.03;100.00;100859.17;1707781;83;21091;-89
2022/07/13 04:41:03;;;;;;;7.70;6.65;;;;;;;18.17;100.00;100856.42;1707899;83;21537;-90
2022/07/13 04:43:30;;;;;;;7.92;7.10;;;;;;;18.32;100.00;100853.98;1707512;83;21923;-89
2022/07/13 04:45:58;;;;;;;7.87;7.08;;;;;;;18.44;100.00;100858.80;1707760;84;21016;-89
2022/07/13 04:48:25;;;;;;;12.75;6.72;;;;;;;18.56;100.00;100856.68;1707473;83;21035;-88
2022/07/13 04:50:52;;;;;;;16.82;7.03;;;;;;;18.71;100.00;100852.08;1708243;84;21091;-88
2022/07/13 04:53:20;;;;;;;8.75;6.40;;;;;;;18.84;100.00;100851.13;1707239;83;21580;-90
2022/07/13 04:55:47;;;;;;;7.97;6.40;;;;;;;18.99;100.00;100844.70;1707912;83;21115;-88
2022/07/13 04:58:14;;;;;;;7.80;6.90;;;;;;;19.13;100.00;100849.02;1707956;84;21017;-87
2022/07/13 05:00:42;;;;;;;6.33;5.78;;;;;;;19.27;100.00;100844.88;1707816;83;21612;-87
2022/07/13 05:03:09;;;;;;;6.33;5.42;;;;;;;19.42;100.00;100844.53;1715487;82;21301;-89
2022/07/13 05:05:36;;;;;;;5.35;4.53;;;;;;;19.58;100.00;100837.55;1731107;82;21007;-87
2022/07/13 05:08:05;;;;;;;9.55;4.47;;;;;;;19.75;100.00;100836.48;1714552;82;21124;-88
2022/07/13 05:10:33;;;;;;;4.17;3.77;;;;;;;19.91;100.00;100832.20;1736264;82;21042;-89
2022/07/13 05:13:00;;;;;;;14.25;3.83;;;;;;;20.10;100.00;100834.91;1714199;82;21172;-89
2022/07/13 05:15:28;;;;;;;8.08;3.47;;;;;;;20.26;100.00;100832.66;1695104;84;21324;-88
2022/07/13 05:17:55;;;;;;;3.75;3.42;;;;;;;20.42;100.00;100827.80;1703574;83;21121;-88
2022/07/13 05:20:23;;;;;;;6.58;3.00;;;;;;;20.57;100.00;100824.71;1690661;83;21318;-89
2022/07/13 05:22:52;;;;;;;3.65;2.75;;;;;;;20.73;100.00;100823.78;1684576;85;21079;-89
2022/07/13 05:25:21;;;;;;;2.80;2.60;;;;;;;20.88;100.00;100830.45;1687856;83;21101;-89
2022/07/13 05:27:48;;;;;;;2.77;2.58;;;;;;;21.05;100.00;100824.51;1687866;85;21539;-89
2022/07/13 05:30:15;;;;;;;2.00;1.87;;;;;;;21.22;100.00;100825.20;1689347;83;21056;-89
2022/07/13 05:32:43;;;;;;;2.58;2.37;;;;;;;21.38;100.00;100822.87;1705258;83;22119;-89
2022/07/13 05:35:11;;;;;;;2.40;2.20;;;;;;;21.52;100.00;100822.56;1692400;83;21082;-88
2022/07/13 05:37:39;;;;;;;2.00;1.90;;;;;;;21.66;100.00;100822.28;1747867;81;21525;-88
2022/07/13 05:40:08;;;;;;;2.77;2.15;;;;;;;21.79;100.00;100816.81;1751504;81;21356;-90
2022/07/13 05:42:35;;;;;;;4.17;2.30;;;;;;;21.90;100.00;100811.05;1746521;80;21030;-89
2022/07/13 05:45:04;;;;;;;2.33;2.15;;;;;;;22.06;100.00;100815.30;1741590;81;21788;-88
2022/07/13 05:47:31;;;;;;;1.87;1.77;;;;;;;22.20;100.00;100810.98;1753010;81;22110;-89
2022/07/13 05:49:58;;;;;;;1.70;1.60;;;;;;;22.34;100.00;100811.94;1741324;81;21360;-89
2022/07/13 05:52:26;;;;;;;2.90;1.80;;;;;;;22.48;100.00;100807.11;1750701;80;21057;-89
2022/07/13 05:54:54;;;;;;;2.02;1.80;;;;;;;22.64;100.00;100806.53;1675197;84;21564;-89
2022/07/13 05:57:22;;;;;;;2.12;1.60;;;;;;;22.76;100.00;100810.30;1750742;81;21164;-89
2022/07/13 05:59:49;;;;;;;1.70;1.60;;;;;;;22.87;100.00;100801.51;1744035;80;21042;-89
2022/07/13 06:02:16;;;;;;;1.80;1.52;;;;;;;22.99;99.08;100800.80;1746497;81;21599;-89
2022/07/13 06:04:43;;;;;;;2.47;1.80;;;;;;;23.10;90.52;100795.97;1747334;81;21031;-89
2022/07/13 06:07:10;;;;;;;1.98;1.80;;;;;;;23.20;93.19;100798.30;1749248;81;21096;-89
2022/07/13 06:09:38;;;;;;;4.45;1.77;;;;;;;23.31;94.82;100787.15;1745504;81;21569;-89
2022/07/13 06:12:07;;;;;;;2.45;1.30;;;;;;;23.43;93.79;100786.09;1744961;81;21026;-89
2022/07/13 06:14:34;;;;;;;2.47;1.82;;;;;;;23.54;83.51;100779.39;1740009;81;21479;-89
2022/07/13 06:17:03;;;;;;;1.82;1.62;;;;;;;23.65;90.40;100778.00;1746183;81;21082;-90
2022/07/13 06:19:30;;;;;;;1.90;1.80;;;;;;;23.74;87.15;100772.83;1694781;83;21115;-89
2022/07/13 06:21:57;;;;;;;1.92;1.80;;;;;;;23.83;88.98;100773.47;1683353;84;21140;-88
2022/07/13 06:24:24;;;;;;;3.98;1.62;;;;;;;23.94;89.93;100772.41;1741351;81;21064;-89
2022/07/13 06:26:52;;;;;;;1.55;1.42;;;;;;;24.06;79.88;100768.66;1747722;81;21029;-90
2022/07/13 06:29:19;;;;;;;1.50;1.40;;;;;;;24.16;78.22;100764.27;1688101;84;21037;-90
2022/07/13 06:31:48;;;;;;;4.30;2.15;;;;;;;24.26;74.67;100761.23;1670545;85;21058;-89
2022/07/13 06:34:15;;;;;;;3.17;1.40;;;;;;;24.37;72.59;100762.47;1685275;83;21172;-89
2022/07/13 06:36:43;;;;;;;3.15;1.65;;;;;;;24.48;68.12;100761.04;1734193;82;21537;-89
2022/07/13 06:39:10;;;;;;;1.42;1.30;;;;;;;24.56;68.46;100753.66;1734598;81;21091;-89
2022/07/13 06:41:37;;;;;;;1.20;1.20;;;;;;;24.67;68.17;100754.94;1745170;80;21093;-90
2022/07/13 06:44:06;;;;;;;1.82;1.22;;;;;;;24.76;61.13;100751.55;1685024;84;21582;-89
2022/07/13 06:46:33;;;;;;;3.17;1.40;;;;;;;24.86;61.03;100752.45;1670516;85;21124;-90
2022/07/13 06:49:00;;;;;;;2.67;1.30;;;;;;;24.97;59.07;100752.32;1678033;85;21046;-88
2022/07/13 06:51:28;;;;;;;2.98;1.30;;;;;;;25.05;57.96;100752.09;1699313;83;21039;-89
2022/07/13 06:53:55;;;;;;;2.65;1.20;;;;;;;25.12;56.51;100754.23;1694883;83;21018;-89
2022/07/13 06:56:22;;;;;;;3.10;1.07;;;;;;;25.19;54.75;100760.39;1706271;81;21331;-88
2022/07/13 06:58:49;;;;;;;2.05;1.25;;;;;;;25.27;51.83;100758.52;1727461;81;21641;-90
2022/07/13 07:01:17;;;;;;;4.10;1.30;;;;;;;25.33;50.96;100755.02;1726736;81;22217;-89
2022/07/13 07:03:44;;;;;;;2.22;1.10;;;;;;;25.41;50.38;100753.48;1700430;83;21089;-90
2022/07/13 07:06:12;;;;;;;5.28;1.30;;;;;;;25.48;50.24;100756.94;1707503;83;22119;-89
2022/07/13 07:08:39;;;;;;;1.47;1.32;;;;;;;25.54;50.36;100744.61;1693486;82;21056;-91
2022/07/13 07:11:07;;;;;;;2.65;1.20;;;;;;;25.62;50.12;100747.04;1715690;82;21786;-90
2022/07/13 07:13:34;;;;;;;1.40;1.20;;;;;;;25.71;50.89;100740.94;1705920;82;21053;-90
2022/07/13 07:16:01;;;;;;;2.52;1.40;;;;;;;25.79;48.72;100744.69;1719917;82;21057;-91
2022/07/13 07:18:28;;;;;;;3.33;1.30;;;;;;;25.86;48.05;100745.16;1706164;82;21563;-89
2022/07/13 07:20:55;;;;;;;2.65;1.35;;;;;;;25.93;49.65;100745.44;1704318;82;21060;-90
2022/07/13 07:23:23;;;;;;;2.10;1.25;;;;;;;25.97;48.82;100745.30;1702728;83;21109;-89
2022/07/13 07:25:50;;;;;;;4.03;1.57;;;;;;;26.02;48.17;100744.66;1706029;82;22239;-90
2022/07/13 07:28:17;;;;;;;3.22;1.60;;;;;;;26.08;47.22;100751.82;1703872;82;21081;-91
2022/07/13 07:30:45;;;;;;;3.87;1.30;;;;;;;26.12;46.83;100749.53;1706887;82;21607;-89
2022/07/13 07:33:12;;;;;;;4.78;1.50;;;;;;;26.16;46.52;100752.63;1711530;82;21111;-87
2022/07/13 07:35:39;;;;;;;4.15;1.40;;;;;;;26.21;47.91;100756.25;1709639;82;21244;-90
2022/07/13 07:38:08;;;;;;;1.50;1.35;;;;;;;26.27;45.81;100750.58;1710978;83;21642;-89
2022/07/13 07:40:36;;;;;;;2.17;1.40;;;;;;;26.30;45.69;100746.15;1708904;82;21101;-89
2022/07/13 07:43:03;;;;;;;1.37;1.20;;;;;;;26.33;44.24;100744.36;1713320;82;21578;-89
2022/07/13 07:45:30;;;;;;;1.55;1.40;;;;;;;26.37;46.33;100733.56;1710803;82;21037;-89
2022/07/13 07:47:57;;;;;;;1.75;1.42;;;;;;;26.43;46.54;100735.89;1724833;81;21139;-89
2022/07/13 07:50:25;;;;;;;3.27;1.65;;;;;;;26.49;46.54;100728.84;1705672;83;21089;-90
2022/07/13 07:52:52;;;;;;;1.82;1.67;;;;;;;26.57;45.95;100732.56;1706229;83;21086;-88
2022/07/13 07:55:19;;;;;;;1.87;1.55;;;;;;;26.64;45.31;100729.84;1697932;83;21093;-90
2022/07/13 07:57:49;;;;;;;2.95;1.52;;;;;;;26.69;45.39;100724.66;1700179;83;21683;-89
2022/07/13 08:00:17;;;;;;;4.42;1.60;;;;;;;26.74;45.04;100727.50;1702564;83;21464;-91
2022/07/13 08:02:45;;;;;;;2.75;1.80;;;;;;;26.83;46.60;100724.04;1686758;83;21090;-90
2022/07/13 08:05:12;;;;;;;1.92;1.70;;;;;;;26.92;45.52;100726.73;1750067;80;21081;-89
2022/07/13 08:07:45;;;;;;;2.47;1.65;;;;;;;26.99;43.24;100718.12;1749465;81;21104;-90
2022/07/13 08:10:14;;;;;;;3.37;1.60;;;;;;;27.02;43.74;100725.70;1692068;82;21023;-90
2022/07/13 08:12:41;;;;;;;1.95;1.60;;;;;;;27.07;43.91;100725.84;1694639;84;21243;-89
2022/07/13 08:15:09;;;;;;;4.80;2.00;;;;;;;27.11;43.09;100720.86;1706385;84;21054;-89
2022/07/13 08:17:37;;;;;;;1.60;1.50;;;;;;;27.15;44.04;100726.58;1707053;84;21635;-90
2022/07/13 08:20:05;;;;;;;5.00;2.12;;;;;;;27.23;45.29;100719.09;1707700;84;21059;-90
2022/07/13 08:22:33;;;;;;;1.70;1.60;;;;;;;27.35;45.54;100720.49;1710790;82;21805;-89
2022/07/13 08:25:00;;;;;;;4.15;1.80;;;;;;;27.44;43.35;100714.87;1705950;84;21105;-89
2022/07/13 08:27:28;;;;;;;1.87;1.57;;;;;;;27.47;42.06;100709.05;1684229;82;21578;-89
2022/07/13 08:29:57;;;;;;;4.28;1.60;;;;;;;27.48;41.62;100718.17;1708699;82;21107;-91
2022/07/13 08:32:27;;;;;;;2.50;1.60;;;;;;;27.49;40.85;100713.12;1718005;82;21579;-90
2022/07/13 08:40:27;;;;;;;4.25;2.00;;;;;;;27.61;42.58;100695.79;1707651;83;21305;-90
2022/07/13 08:42:54;;;;;;;2.02;1.80;;;;;;;27.66;40.52;100706.64;1714105;83;21117;-89
2022/07/13 08:45:21;;;;;;;3.92;1.80;;;;;;;27.67;40.91;100698.09;1744587;82;21046;-90
2022/07/13 08:47:49;;;;;;;3.40;1.90;;;;;;;27.70;40.74;100695.77;1736642;82;21077;-88
2022/07/13 08:50:17;;;;;;;4.33;1.90;;;;;;;27.76;41.05;100693.25;1714438;83;21106;-89
2022/07/13 08:52:45;;;;;;;5.58;2.00;;;;;;;27.85;42.33;100694.52;1710162;83;21049;-89
2022/07/13 08:55:12;;;;;;;3.27;2.00;;;;;;;27.94;41.98;100697.17;1743961;82;21045;-91
2022/07/13 08:57:40;;;;;;;4.05;2.40;;;;;;;28.00;40.96;100693.57;1711051;82;21049;-90
2022/07/13 09:00:11;;;;;;;5.20;2.47;;;;;;;28.03;41.05;100682.42;1696430;83;21071;-91
2022/07/13 09:02:38;;;;;;;6.72;2.60;;;;;;;28.10;41.13;100685.53;1682867;85;21573;-90
2022/07/13 09:05:07;;;;;;;3.22;2.00;;;;;;;28.16;41.50;100684.64;1683031;85;21059;-88
2022/07/13 09:07:36;;;;;;;5.70;2.20;;;;;;;28.17;40.64;100687.07;1683028;82;21171;-89
2022/07/13 09:10:05;;;;;;;4.35;2.20;;;;;;;28.20;41.81;100684.45;1686271;83;21065;-89
2022/07/13 09:12:33;;;;;;;3.30;2.10;;;;;;;28.31;40.85;100682.82;1688177;83;21101;-89
2022/07/13 09:15:06;;;;;;;19.02;2.90;;;;;;;28.43;41.08;100679.64;1691975;83;21183;-89
2022/07/13 09:17:43;;;;;;;7.78;2.22;;;;;;;28.53;39.68;100681.73;1686634;83;21512;-90
2022/07/13 09:20:17;;;;;;;1.70;1.60;;;;;;;28.60;39.76;100681.08;1677141;84;21068;-90
2022/07/13 09:22:59;;;;;;;2.45;1.40;;;;;;;28.65;39.83;100668.33;1678046;85;21054;-89
2022/07/13 09:25:37;;;;;;;7.87;2.20;;;;;;;28.75;39.20;100676.62;1686507;85;21113;-88
2022/07/13 09:28:10;;;;;;;3.83;1.60;;;;;;;28.84;37.91;100669.02;1711749;83;21045;-90
2022/07/13 09:30:45;;;;;;;1.65;1.25;;;;;;;28.87;37.92;100663.20;1711631;83;21097;-89
2022/07/13 09:33:12;;;;;;;3.58;1.52;;;;;;;28.89;38.66;100655.72;1708744;83;21525;-90
2022/07/13 09:35:50;;;;;;;2.27;1.40;;;;;;;28.90;38.28;100654.67;1711759;83;21037;-89
2022/07/13 09:38:39;;;;;;;3.62;1.42;;;;;;;28.86;37.59;100657.55;1702503;83;21384;-90
2022/07/13 09:41:27;;;;;;;4.83;1.75;;;;;;;28.79;38.07;100657.67;1688410;83;21652;-90
2022/07/13 09:47:04;;;;;;;4.42;1.70;;;;;;;28.45;39.74;100652.62;1676914;85;21078;-89
2022/07/13 09:49:44;;;;;;;1.92;1.50;;;;;;;28.20;38.39;100652.33;1666472;86;21123;-89
2022/07/13 09:52:18;;;;;;;3.22;1.47;;;;;;;27.94;38.80;100650.88;1685480;84;21057;-89
2022/07/13 09:54:52;;;;;;;3.67;1.45;;;;;;;27.68;39.32;100648.37;1673217;85;21046;-89
2022/07/13 09:57:21;;;;;;;3.58;1.60;;;;;;;27.57;39.49;100642.98;1689713;83;21499;-89
2022/07/13 09:59:49;;;;;;;;;;;;;;;27.44;38.88;100646.70;1753773;81;21047;-90
2022/07/13 10:02:17;;;;;;;2.52;1.42;;;;;;;27.31;39.48;100641.78;1751067;80;20171;-90
2022/07/13 10:04:46;;;;;;;3.37;1.40;;;;;;;27.23;40.54;100633.56;1744588;81;21060;-88
2022/07/13 10:07:14;;;;;;;1.70;1.40;;;;;;;27.37;41.94;100633.37;1747054;81;21131;-91
2022/07/13 10:09:42;;;;;;;3.05;1.50;;;;;;;27.63;41.43;100637.55;1713504;82;21043;-90
2022/07/13 10:12:10;;;;;;;1.72;1.50;;;;;;;27.75;41.30;100635.44;1680490;84;21120;-90
2022/07/13 10:14:39;;;;;;;1.85;1.65;;;;;;;27.76;39.80;100625.04;1748448;81;21073;-89
2022/07/13 10:17:10;;;;;;;7.28;1.65;;;;;;;27.84;41.47;100618.82;1699177;84;22102;-90
2022/07/13 10:19:43;;;;;;;1.82;1.50;;;;;;;28.08;40.02;100621.55;1687433;84;22028;-91
2022/07/13 10:22:17;;;;;;;2.80;1.45;;;;;;;28.34;40.86;100618.92;1708011;83;21521;-92
2022/07/13 10:24:58;;;;;;;2.90;1.57;;;;;;;28.61;40.28;100614.41;1682357;84;21052;-88
2022/07/13 10:27:32;;;;;;;2.27;1.40;;;;;;;28.69;40.44;100620.45;1704464;83;21566;-89
2022/07/13 10:30:20;;;;;;;3.60;1.50;;;;;;;28.56;38.76;100610.30;1720662;82;21094;-90
2022/07/13 10:32:48;;;;;;;2.35;1.52;;;;;;;28.32;39.44;100623.69;1699976;83;21234;-91
2022/07/13 10:35:17;;;;;;;2.40;1.62;;;;;;;28.08;40.17;100616.73;1743261;81;21068;-92
2022/07/13 10:38:02;;;;;;;2.50;1.40;;;;;;;27.98;39.12;100609.23;1715774;83;21531;-89
2022/07/13 10:40:36;;;;;;;1.85;1.47;;;;;;;28.01;39.99;100610.11;1704719;83;21023;-89
2022/07/13 10:43:09;;;;;;;3.98;1.62;;;;;;;28.21;40.08;100603.11;1707119;83;21073;-91
2022/07/13 10:45:40;;;;;;;3.22;1.50;;;;;;;28.45;40.67;100601.75;1681886;84;21286;-89
2022/07/13 10:48:26;;;;;;;3.52;1.70;;;;;;;28.67;40.89;100601.11;1716069;83;21166;-90
2022/07/13 10:50:57;;;;;;;1.67;1.42;;;;;;;28.79;39.85;100597.39;1697457;83;21065;-89
2022/07/13 10:53:50;;;;;;;4.12;1.70;;;;;;;28.84;40.46;100589.98;1702732;83;21069;-90
2022/07/13 10:56:21;;;;;;;5.50;1.82;;;;;;;28.97;40.71;100587.55;1685069;83;21129;-90
2022/07/13 10:58:50;;;;;;;4.47;1.70;;;;;;;29.06;40.76;100589.31;1711531;83;21844;-89
2022/07/13 11:01:43;;;;;;;1.98;1.50;;;;;;;29.10;39.66;100580.55;1761558;80;21061;-90
2022/07/13 11:04:15;;;;;;;2.50;1.82;;;;;;;29.23;39.93;100582.13;1756309;80;21053;-91
2022/07/13 11:07:06;;;;;;;4.72;1.85;;;;;;;29.35;39.03;100570.56;1751464;80;21077;-90
2022/07/13 11:09:33;;;;;;;7.12;2.20;;;;;;;29.49;39.06;100567.02;1702874;80;21043;-92
2022/07/13 11:12:06;;;;;;;1.87;1.50;;;;;;;29.63;38.83;100567.02;1704330;83;21131;-93
2022/07/13 11:14:42;;;;;;;2.62;1.72;;;;;;;29.71;38.01;100555.87;1728149;82;21046;-90
2022/07/13 11:17:20;;;;;;;1.82;1.50;;;;;;;29.80;37.10;100553.58;1758152;80;21042;-90
2022/07/13 11:20:00;;;;;;;2.50;1.60;;;;;;;29.85;36.69;100551.50;1757172;80;21014;-91
2022/07/13 11:25:46;;;;;;;2.35;1.80;;;;;;;30.02;37.14;100538.91;1771753;80;21135;-90
2022/07/13 11:28:34;;;;;;;2.62;1.65;;;;;;;30.10;36.42;100548.39;1662106;83;21042;-92
2022/07/13 11:31:03;;;;;;;4.45;1.45;;;;;;;30.14;34.97;100550.05;1764444;80;21602;-91
2022/07/13 11:33:31;;;;;;;11.20;2.47;;;;;;;30.19;36.26;100538.84;1766482;80;21108;-91
2022/07/13 11:36:00;;;;;;;2.33;1.50;;;;;;;30.35;37.06;100537.70;1756246;80;21065;-91
2022/07/13 11:38:35;;;;;;;1.55;1.40;;;;;;;30.47;35.79;100527.66;1754948;80;21250;-90
2022/07/13 11:41:05;;;;;;;1.75;1.32;;;;;;;30.52;35.80;100530.42;1761359;80;21049;-90